sensor_id;sensor_type;location;lat;lon;timestamp;pressure;altitude;pressure_sealevel;temperature;humidity
26859;BME280;14429;48.346;16.338;2023-04-04T00:00:07;100484.28;;;10.11;48.25
26859;BME280;14429;48.346;16.338;2023-04-04T00:02:32;100483.59;;;10.07;49.67
26859;BME280;14429;48.346;16.338;2023-04-04T00:04:58;100484.44;;;9.59;46.03
26859;BME280;14429;48.346;16.338;2023-04-04T00:07:23;100485.06;;;9.31;44.07
26859;BME280;14429;48.346;16.338;2023-04-04T00:09:50;100493.00;;;9.97;47.22
26859;BME280;14429;48.346;16.338;2023-04-04T00:12:15;100488.63;;;10.44;49.35
26859;BME280;14429;48.346;16.338;2023-04-04T00:14:41;100485.81;;;9.99;42.02
26859;BME280;14429;48.346;16.338;2023-04-04T00:17:06;100476.72;;;10.03;46.83
26859;BME280;14429;48.346;16.338;2023-04-04T00:19:31;100478.19;;;9.43;42.16
26859;BME280;14429;48.346;16.338;2023-04-04T00:21:57;100480.19;;;9.89;47.81
26859;BME280;14429;48.346;16.338;2023-04-04T00:24:22;100478.28;;;10.23;42.95
26859;BME280;14429;48.346;16.338;2023-04-04T00:26:49;100482.44;;;10.74;48.80
26859;BME280;14429;48.346;16.338;2023-04-04T00:29:14;100486.72;;;11.20;48.64
26859;BME280;14429;48.346;16.338;2023-04-04T00:31:40;100480.00;;;11.57;47.60
26859;BME280;14429;48.346;16.338;2023-04-04T00:34:05;100476.09;;;11.49;45.67
26859;BME280;14429;48.346;16.338;2023-04-04T00:36:31;100478.59;;;11.52;40.36
26859;BME280;14429;48.346;16.338;2023-04-04T00:38:56;100487.94;;;11.59;46.41
26859;BME280;14429;48.346;16.338;2023-04-04T00:41:22;100486.47;;;11.40;46.01
26859;BME280;14429;48.346;16.338;2023-04-04T00:43:48;100486.22;;;11.29;45.15
26859;BME280;14429;48.346;16.338;2023-04-04T00:46:14;100487.91;;;11.88;46.63
26859;BME280;14429;48.346;16.338;2023-04-04T00:48:40;100484.25;;;12.03;46.27
26859;BME280;14429;48.346;16.338;2023-04-04T00:51:05;100484.03;;;11.06;38.36
26859;BME280;14429;48.346;16.338;2023-04-04T00:53:31;100487.34;;;11.54;46.59
26859;BME280;14429;48.346;16.338;2023-04-04T00:55:56;100472.03;;;11.71;46.42
26859;BME280;14429;48.346;16.338;2023-04-04T00:58:23;100486.66;;;10.32;44.42
26859;BME280;14429;48.346;16.338;2023-04-04T01:00:51;100483.88;;;10.79;47.77
26859;BME280;14429;48.346;16.338;2023-04-04T01:03:16;100481.16;;;11.09;47.72
26859;BME280;14429;48.346;16.338;2023-04-04T01:05:42;100477.53;;;11.26;47.03
26859;BME280;14429;48.346;16.338;2023-04-04T01:08:07;100478.78;;;11.05;43.75
26859;BME280;14429;48.346;16.338;2023-04-04T01:10:33;100482.13;;;11.37;45.98
26859;BME280;14429;48.346;16.338;2023-04-04T01:12:59;100477.34;;;11.44;46.62
26859;BME280;14429;48.346;16.338;2023-04-04T01:15:24;100481.22;;;11.81;46.60
26859;BME280;14429;48.346;16.338;2023-04-04T01:17:56;100481.28;;;11.80;46.42
26859;BME280;14429;48.346;16.338;2023-04-04T01:20:24;100485.00;;;11.63;44.97
26859;BME280;14429;48.346;16.338;2023-04-04T01:22:51;100486.41;;;11.55;45.88
26859;BME280;14429;48.346;16.338;2023-04-04T01:25:25;100477.72;;;11.52;46.38
26859;BME280;14429;48.346;16.338;2023-04-04T01:27:52;100480.66;;;11.18;43.14
26859;BME280;14429;48.346;16.338;2023-04-04T01:30:18;100484.16;;;11.63;46.20
26859;BME280;14429;48.346;16.338;2023-04-04T01:32:50;100481.78;;;11.86;46.30
26859;BME280;14429;48.346;16.338;2023-04-04T01:35:22;100481.81;;;12.00;46.09
26859;BME280;14429;48.346;16.338;2023-04-04T01:37:53;100486.56;;;12.09;46.01
26859;BME280;14429;48.346;16.338;2023-04-04T01:40:26;100469.38;;;12.12;45.69
26859;BME280;14429;48.346;16.338;2023-04-04T01:42:53;100479.31;;;12.11;45.78
26859;BME280;14429;48.346;16.338;2023-04-04T01:45:20;100474.53;;;12.15;45.54
26859;BME280;14429;48.346;16.338;2023-04-04T01:47:46;100479.88;;;12.15;45.57
26859;BME280;14429;48.346;16.338;2023-04-04T01:50:11;100480.06;;;12.12;45.59
26859;BME280;14429;48.346;16.338;2023-04-04T01:52:36;100485.81;;;12.07;45.33
26859;BME280;14429;48.346;16.338;2023-04-04T01:55:02;100483.91;;;12.09;45.53
26859;BME280;14429;48.346;16.338;2023-04-04T01:57:29;100479.31;;;12.11;45.70
26859;BME280;14429;48.346;16.338;2023-04-04T01:59:55;100477.03;;;12.05;45.53
26859;BME280;14429;48.346;16.338;2023-04-04T02:02:20;100484.81;;;11.80;44.92
26859;BME280;14429;48.346;16.338;2023-04-04T02:04:46;100484.66;;;11.97;45.68
26859;BME280;14429;48.346;16.338;2023-04-04T02:07:12;100478.72;;;12.06;45.68
26859;BME280;14429;48.346;16.338;2023-04-04T02:09:37;100476.16;;;12.04;45.28
26859;BME280;14429;48.346;16.338;2023-04-04T02:12:03;100488.66;;;11.90;44.71
26859;BME280;14429;48.346;16.338;2023-04-04T02:14:29;100481.59;;;12.03;45.57
26859;BME280;14429;48.346;16.338;2023-04-04T02:16:55;100485.50;;;11.97;45.61
26859;BME280;14429;48.346;16.338;2023-04-04T02:19:20;100471.00;;;12.01;45.50
26859;BME280;14429;48.346;16.338;2023-04-04T02:21:46;100468.44;;;12.00;45.54
26859;BME280;14429;48.346;16.338;2023-04-04T02:24:11;100470.91;;;12.03;45.66
26859;BME280;14429;48.346;16.338;2023-04-04T02:26:37;100470.06;;;11.88;45.54
26859;BME280;14429;48.346;16.338;2023-04-04T02:29:03;100466.06;;;11.95;45.70
26859;BME280;14429;48.346;16.338;2023-04-04T02:31:29;100462.53;;;11.23;37.79
26859;BME280;14429;48.346;16.338;2023-04-04T02:33:55;100460.78;;;11.80;46.01
26859;BME280;14429;48.346;16.338;2023-04-04T02:36:20;100471.47;;;11.94;45.74
26859;BME280;14429;48.346;16.338;2023-04-04T02:38:46;100461.56;;;11.96;45.66
26859;BME280;14429;48.346;16.338;2023-04-04T02:41:11;100457.94;;;11.97;45.70
26859;BME280;14429;48.346;16.338;2023-04-04T02:43:37;100464.03;;;11.99;45.67
26859;BME280;14429;48.346;16.338;2023-04-04T02:46:02;100470.34;;;11.98;45.62
26859;BME280;14429;48.346;16.338;2023-04-04T02:48:29;100469.22;;;11.88;45.50
26859;BME280;14429;48.346;16.338;2023-04-04T02:50:54;100465.38;;;11.92;45.54
26859;BME280;14429;48.346;16.338;2023-04-04T02:53:20;100465.38;;;11.92;45.68
26859;BME280;14429;48.346;16.338;2023-04-04T02:55:45;100458.53;;;11.88;45.58
26859;BME280;14429;48.346;16.338;2023-04-04T02:58:11;100456.41;;;11.93;45.58
26859;BME280;14429;48.346;16.338;2023-04-04T03:00:36;100458.78;;;11.97;45.49
26859;BME280;14429;48.346;16.338;2023-04-04T03:03:02;100458.91;;;11.96;45.39
26859;BME280;14429;48.346;16.338;2023-04-04T03:05:28;100460.03;;;11.92;45.34
26859;BME280;14429;48.346;16.338;2023-04-04T03:07:54;100456.41;;;11.93;45.43
26859;BME280;14429;48.346;16.338;2023-04-04T03:10:20;100451.91;;;11.93;45.49
26859;BME280;14429;48.346;16.338;2023-04-04T03:12:45;100458.13;;;11.94;45.60
26859;BME280;14429;48.346;16.338;2023-04-04T03:15:11;100452.78;;;11.94;45.49
26859;BME280;14429;48.346;16.338;2023-04-04T03:17:36;100452.78;;;11.94;45.40
26859;BME280;14429;48.346;16.338;2023-04-04T03:20:02;100450.41;;;11.47;42.91
26859;BME280;14429;48.346;16.338;2023-04-04T03:22:29;100441.09;;;11.54;46.14
26859;BME280;14429;48.346;16.338;2023-04-04T03:24:55;100450.53;;;11.45;46.29
26859;BME280;14429;48.346;16.338;2023-04-04T03:27:20;100436.91;;;11.63;45.95
26859;BME280;14429;48.346;16.338;2023-04-04T03:29:46;100441.47;;;11.48;44.30
26859;BME280;14429;48.346;16.338;2023-04-04T03:32:11;100443.00;;;11.52;44.98
26859;BME280;14429;48.346;16.338;2023-04-04T03:34:36;100439.78;;;11.74;45.81
26859;BME280;14429;48.346;16.338;2023-04-04T03:37:02;100441.31;;;11.78;45.48
26859;BME280;14429;48.346;16.338;2023-04-04T03:39:29;100440.72;;;11.59;44.68
26859;BME280;14429;48.346;16.338;2023-04-04T03:41:54;100439.09;;;11.28;44.48
26859;BME280;14429;48.346;16.338;2023-04-04T03:44:20;100437.34;;;11.42;45.99
26859;BME280;14429;48.346;16.338;2023-04-04T03:46:45;100440.03;;;10.98;44.90
26859;BME280;14429;48.346;16.338;2023-04-04T03:49:10;100442.34;;;10.60;39.90
26859;BME280;14429;48.346;16.338;2023-04-04T03:51:36;100438.47;;;11.09;44.72
26859;BME280;14429;48.346;16.338;2023-04-04T03:54:01;100433.97;;;11.25;46.26
26859;BME280;14429;48.346;16.338;2023-04-04T03:56:29;100442.38;;;11.33;45.70
26859;BME280;14429;48.346;16.338;2023-04-04T03:58:54;100440.44;;;10.77;44.27
26859;BME280;14429;48.346;16.338;2023-04-04T04:01:20;100436.34;;;10.56;47.56
26859;BME280;14429;48.346;16.338;2023-04-04T04:03:45;100440.47;;;10.47;47.55
26859;BME280;14429;48.346;16.338;2023-04-04T04:06:10;100440.81;;;10.56;48.44
26859;BME280;14429;48.346;16.338;2023-04-04T04:08:36;100430.31;;;10.07;41.83
26859;BME280;14429;48.346;16.338;2023-04-04T04:11:05;100437.97;;;9.33;38.88
26859;BME280;14429;48.346;16.338;2023-04-04T04:13:32;100434.63;;;9.46;49.17
26859;BME280;14429;48.346;16.338;2023-04-04T04:15:58;100442.69;;;9.28;42.25
26859;BME280;14429;48.346;16.338;2023-04-04T04:18:23;100442.19;;;8.17;40.65
26859;BME280;14429;48.346;16.338;2023-04-04T04:20:48;100444.91;;;8.68;46.27
26859;BME280;14429;48.346;16.338;2023-04-04T04:23:14;100434.53;;;8.64;40.12
26859;BME280;14429;48.346;16.338;2023-04-04T04:25:39;100440.16;;;9.08;49.64
26859;BME280;14429;48.346;16.338;2023-04-04T04:28:05;100434.06;;;9.06;49.09
26859;BME280;14429;48.346;16.338;2023-04-04T04:30:32;100439.25;;;9.09;44.45
26859;BME280;14429;48.346;16.338;2023-04-04T04:32:57;100439.25;;;9.09;42.84
26859;BME280;14429;48.346;16.338;2023-04-04T04:35:22;100453.91;;;8.48;48.48
26859;BME280;14429;48.346;16.338;2023-04-04T04:37:48;100438.56;;;8.71;48.28
26859;BME280;14429;48.346;16.338;2023-04-04T04:40:13;100441.34;;;9.03;51.85
26859;BME280;14429;48.346;16.338;2023-04-04T04:42:42;100430.03;;;9.16;50.97
26859;BME280;14429;48.346;16.338;2023-04-04T04:45:08;100447.59;;;9.84;49.03
26859;BME280;14429;48.346;16.338;2023-04-04T04:47:35;100451.75;;;9.07;40.00
26859;BME280;14429;48.346;16.338;2023-04-04T04:50:01;100454.31;;;7.84;39.06
26859;BME280;14429;48.346;16.338;2023-04-04T04:52:27;100457.13;;;8.89;51.61
26859;BME280;14429;48.346;16.338;2023-04-04T04:54:52;100446.25;;;8.77;42.48
26859;BME280;14429;48.346;16.338;2023-04-04T04:57:17;100460.97;;;8.84;47.63
26859;BME280;14429;48.346;16.338;2023-04-04T04:59:43;100463.97;;;7.87;49.48
26859;BME280;14429;48.346;16.338;2023-04-04T05:02:08;100469.00;;;8.11;49.61
26859;BME280;14429;48.346;16.338;2023-04-04T05:04:35;100465.25;;;7.00;48.67
26859;BME280;14429;48.346;16.338;2023-04-04T05:07:00;100475.59;;;6.86;46.90
26859;BME280;14429;48.346;16.338;2023-04-04T05:09:26;100466.56;;;7.31;45.95
26859;BME280;14429;48.346;16.338;2023-04-04T05:11:51;100467.00;;;7.21;42.43
26859;BME280;14429;48.346;16.338;2023-04-04T05:14:17;100465.09;;;8.00;nan
26859;BME280;14429;48.346;16.338;2023-04-04T05:16:42;100469.09;;;7.72;42.78
26859;BME280;14429;48.346;16.338;2023-04-04T05:19:07;100471.31;;;7.80;44.80
26859;BME280;14429;48.346;16.338;2023-04-04T05:21:34;100468.94;;;8.84;49.71
26859;BME280;14429;48.346;16.338;2023-04-04T05:24:00;100469.09;;;8.28;49.79
26859;BME280;14429;48.346;16.338;2023-04-04T05:26:25;100477.97;;;7.71;43.03
26859;BME280;14429;48.346;16.338;2023-04-04T05:28:51;100479.38;;;8.17;49.35
26859;BME280;14429;48.346;16.338;2023-04-04T05:31:16;100481.72;;;6.46;39.11
26859;BME280;14429;48.346;16.338;2023-04-04T05:33:42;100479.81;;;8.08;45.59
26859;BME280;14429;48.346;16.338;2023-04-04T05:36:07;100479.28;;;7.80;39.53
26859;BME280;14429;48.346;16.338;2023-04-04T05:38:34;100486.50;;;7.39;48.94
26859;BME280;14429;48.346;16.338;2023-04-04T05:40:59;100487.09;;;8.92;51.49
26859;BME280;14429;48.346;16.338;2023-04-04T05:43:25;100496.06;;;7.81;49.28
26859;BME280;14429;48.346;16.338;2023-04-04T05:45:50;100486.25;;;8.21;48.32
26859;BME280;14429;48.346;16.338;2023-04-04T05:48:15;100492.84;;;7.75;43.58
26859;BME280;14429;48.346;16.338;2023-04-04T05:50:43;100497.88;;;8.18;48.74
26859;BME280;14429;48.346;16.338;2023-04-04T05:53:09;100498.63;;;7.64;39.10
26859;BME280;14429;48.346;16.338;2023-04-04T05:55:35;100496.66;;;7.87;40.19
26859;BME280;14429;48.346;16.338;2023-04-04T05:58:01;100504.84;;;6.62;49.13
26859;BME280;14429;48.346;16.338;2023-04-04T06:00:26;100516.44;;;7.80;49.10
26859;BME280;14429;48.346;16.338;2023-04-04T06:02:55;100515.97;;;6.93;41.26
26859;BME280;14429;48.346;16.338;2023-04-04T06:05:20;100518.56;;;6.52;48.02
26859;BME280;14429;48.346;16.338;2023-04-04T06:07:46;100522.72;;;5.91;45.40
26859;BME280;14429;48.346;16.338;2023-04-04T06:10:11;100520.00;;;7.42;43.01
26859;BME280;14429;48.346;16.338;2023-04-04T06:12:38;100522.94;;;7.93;49.00
26859;BME280;14429;48.346;16.338;2023-04-04T06:15:04;100518.94;;;6.85;41.67
26859;BME280;14429;48.346;16.338;2023-04-04T06:17:30;100523.50;;;8.00;53.32
26859;BME280;14429;48.346;16.338;2023-04-04T06:19:55;100521.00;;;6.56;45.37
26859;BME280;14429;48.346;16.338;2023-04-04T06:22:21;100525.34;;;7.40;50.00
26859;BME280;14429;48.346;16.338;2023-04-04T06:24:46;100516.19;;;7.86;40.79
26859;BME280;14429;48.346;16.338;2023-04-04T06:27:12;100512.81;;;8.92;40.63
26859;BME280;14429;48.346;16.338;2023-04-04T06:29:39;100512.50;;;8.63;39.03
26859;BME280;14429;48.346;16.338;2023-04-04T06:32:04;100509.53;;;8.16;35.89
26859;BME280;14429;48.346;16.338;2023-04-04T06:34:30;100497.31;;;9.35;47.93
26859;BME280;14429;48.346;16.338;2023-04-04T06:36:55;100506.75;;;8.72;35.64
26859;BME280;14429;48.346;16.338;2023-04-04T06:39:21;100512.66;;;8.60;38.81
26859;BME280;14429;48.346;16.338;2023-04-04T06:41:47;100513.81;;;8.36;38.11
26859;BME280;14429;48.346;16.338;2023-04-04T06:44:12;100505.63;;;8.23;36.81
26859;BME280;14429;48.346;16.338;2023-04-04T06:46:39;100506.06;;;8.14;37.55
26859;BME280;14429;48.346;16.338;2023-04-04T06:49:05;100508.97;;;8.81;39.38
26859;BME280;14429;48.346;16.338;2023-04-04T06:51:30;100511.75;;;8.25;37.46
26859;BME280;14429;48.346;16.338;2023-04-04T06:53:57;100506.69;;;8.55;39.44
26859;BME280;14429;48.346;16.338;2023-04-04T06:56:22;100516.69;;;8.50;43.18
26859;BME280;14429;48.346;16.338;2023-04-04T06:58:48;100508.13;;;8.07;36.49
26859;BME280;14429;48.346;16.338;2023-04-04T07:01:13;100505.28;;;8.12;45.32
26859;BME280;14429;48.346;16.338;2023-04-04T07:03:40;100510.38;;;7.20;35.97
26859;BME280;14429;48.346;16.338;2023-04-04T07:06:05;100518.16;;;8.01;39.48
26859;BME280;14429;48.346;16.338;2023-04-04T07:08:31;100517.25;;;7.24;35.61
26859;BME280;14429;48.346;16.338;2023-04-04T07:10:57;100519.91;;;7.43;37.08
26859;BME280;14429;48.346;16.338;2023-04-04T07:13:23;100510.00;;;8.04;40.51
26859;BME280;14429;48.346;16.338;2023-04-04T07:15:48;100516.72;;;7.75;35.65
26859;BME280;14429;48.346;16.338;2023-04-04T07:18:13;100512.59;;;7.87;36.68
26859;BME280;14429;48.346;16.338;2023-04-04T07:20:40;100499.94;;;7.54;35.72
26859;BME280;14429;48.346;16.338;2023-04-04T07:23:06;100505.88;;;7.41;36.31
26859;BME280;14429;48.346;16.338;2023-04-04T07:25:31;100510.78;;;7.50;39.46
26859;BME280;14429;48.346;16.338;2023-04-04T07:27:57;100514.44;;;7.07;35.94
26859;BME280;14429;48.346;16.338;2023-04-04T07:30:22;100506.91;;;7.57;40.96
26859;BME280;14429;48.346;16.338;2023-04-04T07:32:55;100508.28;;;7.85;46.21
26859;BME280;14429;48.346;16.338;2023-04-04T07:35:21;100499.63;;;7.42;35.87
26859;BME280;14429;48.346;16.338;2023-04-04T07:37:48;100500.94;;;7.72;37.05
26859;BME280;14429;48.346;16.338;2023-04-04T07:40:13;100515.09;;;7.53;39.96
26859;BME280;14429;48.346;16.338;2023-04-04T07:42:42;100505.22;;;7.56;39.61
26859;BME280;14429;48.346;16.338;2023-04-04T07:45:08;100502.88;;;7.68;42.91
26859;BME280;14429;48.346;16.338;2023-04-04T07:47:33;100504.66;;;7.68;39.88
26859;BME280;14429;48.346;16.338;2023-04-04T07:49:59;100506.94;;;7.37;38.22
26859;BME280;14429;48.346;16.338;2023-04-04T07:52:24;100500.56;;;7.41;38.20
26859;BME280;14429;48.346;16.338;2023-04-04T07:54:51;100496.66;;;8.07;38.47
26859;BME280;14429;48.346;16.338;2023-04-04T07:57:16;100514.44;;;7.07;37.81
26859;BME280;14429;48.346;16.338;2023-04-04T07:59:42;100505.53;;;7.68;40.34
26859;BME280;14429;48.346;16.338;2023-04-04T08:02:07;100520.28;;;8.31;40.69
26859;BME280;14429;48.346;16.338;2023-04-04T08:04:33;100506.06;;;8.14;36.94
26859;BME280;14429;48.346;16.338;2023-04-04T08:06:58;100515.81;;;7.56;34.32
26859;BME280;14429;48.346;16.338;2023-04-04T08:09:23;100511.16;;;7.99;37.79
26859;BME280;14429;48.346;16.338;2023-04-04T08:11:50;100490.63;;;7.84;34.93
26859;BME280;14429;48.346;16.338;2023-04-04T08:14:16;100493.06;;;8.08;35.92
26859;BME280;14429;48.346;16.338;2023-04-04T08:16:41;100499.16;;;8.10;34.69
26859;BME280;14429;48.346;16.338;2023-04-04T08:19:06;100494.38;;;8.71;40.09
26859;BME280;14429;48.346;16.338;2023-04-04T08:21:32;100510.94;;;8.23;38.23
26859;BME280;14429;48.346;16.338;2023-04-04T08:23:57;100511.59;;;8.28;35.52
26859;BME280;14429;48.346;16.338;2023-04-04T08:26:23;100504.22;;;8.16;34.53
26859;BME280;14429;48.346;16.338;2023-04-04T08:28:49;100511.75;;;8.25;35.53
26859;BME280;14429;48.346;16.338;2023-04-04T08:31:15;100506.56;;;8.40;33.69
26859;BME280;14429;48.346;16.338;2023-04-04T08:33:40;100501.81;;;8.99;44.11
26859;BME280;14429;48.346;16.338;2023-04-04T08:36:06;100487.13;;;9.42;35.46
26859;BME280;14429;48.346;16.338;2023-04-04T08:38:32;100496.50;;;9.33;32.80
26859;BME280;14429;48.346;16.338;2023-04-04T08:40:57;100493.50;;;8.88;36.08
26859;BME280;14429;48.346;16.338;2023-04-04T08:43:23;100478.69;;;9.35;34.79
26859;BME280;14429;48.346;16.338;2023-04-04T08:45:52;100488.31;;;10.02;37.63
26859;BME280;14429;48.346;16.338;2023-04-04T08:48:18;100474.09;;;10.34;33.27
26859;BME280;14429;48.346;16.338;2023-04-04T08:50:45;100477.41;;;10.07;38.17
26859;BME280;14429;48.346;16.338;2023-04-04T08:53:13;100482.28;;;9.82;41.10
26859;BME280;14429;48.346;16.338;2023-04-04T08:55:38;100470.34;;;9.91;34.79
26859;BME280;14429;48.346;16.338;2023-04-04T08:58:04;100467.75;;;10.04;37.11
26859;BME280;14429;48.346;16.338;2023-04-04T09:00:29;100479.72;;;9.64;32.36
26859;BME280;14429;48.346;16.338;2023-04-04T09:03:04;100474.97;;;9.04;32.25
26859;BME280;14429;48.346;16.338;2023-04-04T09:05:30;100471.19;;;9.91;43.21
26859;BME280;14429;48.346;16.338;2023-04-04T09:07:57;100464.22;;;10.51;43.28
26859;BME280;14429;48.346;16.338;2023-04-04T09:10:22;100462.03;;;9.80;35.91
26859;BME280;14429;48.346;16.338;2023-04-04T09:12:49;100467.09;;;10.16;42.65
26859;BME280;14429;48.346;16.338;2023-04-04T09:15:15;100462.03;;;9.63;32.46
26859;BME280;14429;48.346;16.338;2023-04-04T09:17:42;100457.28;;;10.01;44.29
26859;BME280;14429;48.346;16.338;2023-04-04T09:23:15;100449.97;;;9.73;41.01
26859;BME280;14429;48.346;16.338;2023-04-04T09:25:45;100451.34;;;9.48;34.54
26859;BME280;14429;48.346;16.338;2023-04-04T09:28:10;100442.59;;;9.78;41.09
26859;BME280;14429;48.346;16.338;2023-04-04T09:30:36;100443.88;;;10.03;33.95
26859;BME280;14429;48.346;16.338;2023-04-04T09:33:03;100437.66;;;9.22;33.04
26859;BME280;14429;48.346;16.338;2023-04-04T09:35:31;100447.50;;;9.85;44.97
26859;BME280;14429;48.346;16.338;2023-04-04T09:37:57;100445.56;;;9.07;32.88
26859;BME280;14429;48.346;16.338;2023-04-04T09:40:24;100449.81;;;9.76;44.53
26859;BME280;14429;48.346;16.338;2023-04-04T09:42:49;100433.16;;;9.24;31.07
26859;BME280;14429;48.346;16.338;2023-04-04T09:45:15;100451.56;;;8.93;34.26
26859;BME280;14429;48.346;16.338;2023-04-04T09:47:40;100433.75;;;9.12;39.35
26859;BME280;14429;48.346;16.338;2023-04-04T09:50:07;100440.16;;;8.22;33.81
26859;BME280;14429;48.346;16.338;2023-04-04T09:52:32;100445.78;;;9.52;44.88
26859;BME280;14429;48.346;16.338;2023-04-04T09:54:59;100448.69;;;9.96;39.35
26859;BME280;14429;48.346;16.338;2023-04-04T09:57:27;100436.56;;;9.91;33.28
26859;BME280;14429;48.346;16.338;2023-04-04T09:59:56;100432.06;;;9.60;32.19
26859;BME280;14429;48.346;16.338;2023-04-04T10:02:22;100438.56;;;10.03;33.32
26859;BME280;14429;48.346;16.338;2023-04-04T10:04:47;100450.38;;;9.97;41.75
26859;BME280;14429;48.346;16.338;2023-04-04T10:07:13;100445.16;;;8.97;34.63
26859;BME280;14429;48.346;16.338;2023-04-04T10:09:38;100437.97;;;8.48;33.61
26859;BME280;14429;48.346;16.338;2023-04-04T10:12:08;100444.00;;;8.51;40.44
26859;BME280;14429;48.346;16.338;2023-04-04T10:14:35;100428.44;;;9.12;32.29
26859;BME280;14429;48.346;16.338;2023-04-04T10:17:06;100421.38;;;8.08;31.38
26859;BME280;14429;48.346;16.338;2023-04-04T10:19:31;100428.50;;;7.88;32.25
26859;BME280;14429;48.346;16.338;2023-04-04T10:21:57;100433.28;;;8.88;40.57
26859;BME280;14429;48.346;16.338;2023-04-04T10:24:23;100418.63;;;8.62;31.57
26859;BME280;14429;48.346;16.338;2023-04-04T10:26:48;100422.25;;;8.43;32.07
26859;BME280;14429;48.346;16.338;2023-04-04T10:29:14;100400.16;;;8.60;32.88
26859;BME280;14429;48.346;16.338;2023-04-04T10:31:42;100398.22;;;9.46;44.13
26859;BME280;14429;48.346;16.338;2023-04-04T10:34:16;100405.53;;;9.58;41.34
26859;BME280;14429;48.346;16.338;2023-04-04T10:36:44;100395.94;;;10.18;44.58
26859;BME280;14429;48.346;16.338;2023-04-04T10:39:13;100393.16;;;9.89;39.56
26859;BME280;14429;48.346;16.338;2023-04-04T10:41:39;100391.69;;;10.60;43.77
26859;BME280;14429;48.346;16.338;2023-04-04T10:44:11;100385.91;;;10.67;37.70
26859;BME280;14429;48.346;16.338;2023-04-04T10:46:42;100384.69;;;10.88;42.61
26859;BME280;14429;48.346;16.338;2023-04-04T10:49:10;100378.16;;;10.78;34.70
26859;BME280;14429;48.346;16.338;2023-04-04T10:51:36;100390.88;;;9.67;33.57
26859;BME280;14429;48.346;16.338;2023-04-04T10:54:03;100386.13;;;10.49;33.34
26859;BME280;14429;48.346;16.338;2023-04-04T10:56:29;100392.41;;;10.18;35.18
26859;BME280;14429;48.346;16.338;2023-04-04T10:59:08;100381.13;;;10.13;34.93
26859;BME280;14429;48.346;16.338;2023-04-04T11:01:47;100364.31;;;10.12;32.54
26859;BME280;14429;48.346;16.338;2023-04-04T11:04:17;100382.25;;;10.54;35.87
26859;BME280;14429;48.346;16.338;2023-04-04T11:09:51;100376.34;;;10.04;37.58
26859;BME280;14429;48.346;16.338;2023-04-04T11:12:20;100375.84;;;10.28;41.78
26859;BME280;14429;48.346;16.338;2023-04-04T11:14:56;100375.47;;;10.34;33.49
26859;BME280;14429;48.346;16.338;2023-04-04T11:17:41;100360.31;;;10.49;34.37
26859;BME280;14429;48.346;16.338;2023-04-04T11:20:07;100356.06;;;10.32;40.11
26859;BME280;14429;48.346;16.338;2023-04-04T11:22:34;100356.56;;;10.67;41.86
26859;BME280;14429;48.346;16.338;2023-04-04T11:24:59;100352.97;;;10.24;30.99
26859;BME280;14429;48.346;16.338;2023-04-04T11:27:45;100335.81;;;10.72;41.65
26859;BME280;14429;48.346;16.338;2023-04-04T11:30:11;100332.94;;;10.17;33.50
26859;BME280;14429;48.346;16.338;2023-04-04T11:32:46;100334.75;;;9.86;36.33
26859;BME280;14429;48.346;16.338;2023-04-04T11:35:12;100334.38;;;9.77;32.51
26859;BME280;14429;48.346;16.338;2023-04-04T11:37:42;100329.16;;;10.21;42.92
26859;BME280;14429;48.346;16.338;2023-04-04T11:40:09;100333.06;;;10.45;42.58
26859;BME280;14429;48.346;16.338;2023-04-04T11:42:36;100321.81;;;9.64;29.10
26859;BME280;14429;48.346;16.338;2023-04-04T11:45:03;100330.09;;;10.20;42.35
26859;BME280;14429;48.346;16.338;2023-04-04T11:47:29;100305.88;;;10.24;43.42
26859;BME280;14429;48.346;16.338;2023-04-04T11:49:57;100303.19;;;10.53;41.59
26859;BME280;14429;48.346;16.338;2023-04-04T11:52:23;100323.50;;;10.56;39.84
26859;BME280;14429;48.346;16.338;2023-04-04T11:54:48;100308.97;;;10.17;41.02
26859;BME280;14429;48.346;16.338;2023-04-04T11:57:15;100286.75;;;10.32;34.83
26859;BME280;14429;48.346;16.338;2023-04-04T11:59:42;100291.28;;;10.74;37.03
26859;BME280;14429;48.346;16.338;2023-04-04T12:02:08;100306.66;;;10.55;33.92
26859;BME280;14429;48.346;16.338;2023-04-04T12:04:34;100289.69;;;10.12;34.40
26859;BME280;14429;48.346;16.338;2023-04-04T12:07:05;100293.97;;;10.30;33.03
26859;BME280;14429;48.346;16.338;2023-04-04T12:09:31;100287.56;;;9.73;29.85
26859;BME280;14429;48.346;16.338;2023-04-04T12:11:57;100286.34;;;10.09;35.66
26859;BME280;14429;48.346;16.338;2023-04-04T12:14:23;100283.25;;;10.16;37.39
26859;BME280;14429;48.346;16.338;2023-04-04T12:16:50;100282.94;;;9.76;31.11
26859;BME280;14429;48.346;16.338;2023-04-04T12:19:16;100271.31;;;9.62;30.66
26859;BME280;14429;48.346;16.338;2023-04-04T12:21:43;100277.50;;;10.52;42.98
26859;BME280;14429;48.346;16.338;2023-04-04T12:24:10;100259.91;;;10.64;38.31
26859;BME280;14429;48.346;16.338;2023-04-04T12:26:36;100262.81;;;10.46;40.06
26859;BME280;14429;48.346;16.338;2023-04-04T12:29:02;100275.00;;;10.49;40.20
26859;BME280;14429;48.346;16.338;2023-04-04T12:31:28;100256.50;;;10.76;41.76
26859;BME280;14429;48.346;16.338;2023-04-04T12:33:54;100258.38;;;10.60;38.24
26859;BME280;14429;48.346;16.338;2023-04-04T12:36:19;100264.03;;;10.83;42.98
26859;BME280;14429;48.346;16.338;2023-04-04T12:38:56;100261.19;;;10.14;32.04
26859;BME280;14429;48.346;16.338;2023-04-04T12:41:23;100258.44;;;10.00;41.08
26859;BME280;14429;48.346;16.338;2023-04-04T12:43:48;100254.50;;;10.36;31.34
26859;BME280;14429;48.346;16.338;2023-04-04T12:46:14;100244.38;;;9.98;32.35